sensor_id;sensor_type;location;lat;lon;timestamp;P1;durP1;ratioP1;P2;durP2;ratioP2
54171;SDS011;40076;52.354;4.970;2023-02-18T00:00:06;38.40;;;10.60;;
54171;SDS011;40076;52.354;4.970;2023-02-18T00:02:33;40.53;;;12.65;;
54171;SDS011;40076;52.354;4.970;2023-02-18T00:04:58;31.70;;;10.20;;
54171;SDS011;40076;52.354;4.970;2023-02-18T00:07:23;36.17;;;10.30;;
54171;SDS011;40076;52.354;4.970;2023-02-18T00:09:49;42.88;;;11.38;;
54171;SDS011;40076;52.354;4.970;2023-02-18T00:12:14;35.58;;;11.20;;
54171;SDS011;40076;52.354;4.970;2023-02-18T00:14:39;34.63;;;11.75;;
54171;SDS011;40076;52.354;4.970;2023-02-18T00:17:05;39.92;;;11.35;;
54171;SDS011;40076;52.354;4.970;2023-02-18T00:19:30;41.13;;;11.90;;
54171;SDS011;40076;52.354;4.970;2023-02-18T00:21:55;40.90;;;12.60;;
54171;SDS011;40076;52.354;4.970;2023-02-18T00:24:21;33.25;;;12.10;;
54171;SDS011;40076;52.354;4.970;2023-02-18T00:26:48;44.85;;;13.43;;
54171;SDS011;40076;52.354;4.970;2023-02-18T00:29:15;45.65;;;12.95;;
54171;SDS011;40076;52.354;4.970;2023-02-18T00:31:40;48.25;;;13.65;;
54171;SDS011;40076;52.354;4.970;2023-02-18T00:34:05;44.95;;;12.32;;
54171;SDS011;40076;52.354;4.970;2023-02-18T00:36:31;47.78;;;14.02;;
54171;SDS011;40076;52.354;4.970;2023-02-18T00:38:58;49.55;;;14.32;;
54171;SDS011;40076;52.354;4.970;2023-02-18T00:41:25;44.33;;;13.48;;
54171;SDS011;40076;52.354;4.970;2023-02-18T00:43:52;48.38;;;14.57;;
54171;SDS011;40076;52.354;4.970;2023-02-18T00:46:18;40.60;;;14.38;;
54171;SDS011;40076;52.354;4.970;2023-02-18T00:48:43;51.80;;;15.18;;
54171;SDS011;40076;52.354;4.970;2023-02-18T00:51:09;47.60;;;15.32;;
54171;SDS011;40076;52.354;4.970;2023-02-18T00:53:35;45.90;;;14.70;;
54171;SDS011;40076;52.354;4.970;2023-02-18T00:56:01;47.42;;;16.27;;
54171;SDS011;40076;52.354;4.970;2023-02-18T00:58:27;47.72;;;16.90;;
54171;SDS011;40076;52.354;4.970;2023-02-18T01:00:53;45.20;;;15.98;;
54171;SDS011;40076;52.354;4.970;2023-02-18T01:03:18;41.47;;;14.68;;
54171;SDS011;40076;52.354;4.970;2023-02-18T01:05:44;45.08;;;16.05;;
54171;SDS011;40076;52.354;4.970;2023-02-18T01:08:09;53.30;;;17.30;;
54171;SDS011;40076;52.354;4.970;2023-02-18T01:10:38;49.70;;;16.45;;
54171;SDS011;40076;52.354;4.970;2023-02-18T01:13:06;54.80;;;17.48;;
54171;SDS011;40076;52.354;4.970;2023-02-18T01:15:32;51.42;;;18.38;;
54171;SDS011;40076;52.354;4.970;2023-02-18T01:17:57;56.42;;;17.85;;
54171;SDS011;40076;52.354;4.970;2023-02-18T01:20:23;56.58;;;17.75;;
54171;SDS011;40076;52.354;4.970;2023-02-18T01:22:48;57.08;;;17.65;;
54171;SDS011;40076;52.354;4.970;2023-02-18T01:25:14;56.15;;;20.38;;
54171;SDS011;40076;52.354;4.970;2023-02-18T01:27:39;54.83;;;20.33;;
54171;SDS011;40076;52.354;4.970;2023-02-18T01:30:05;51.78;;;20.13;;
54171;SDS011;40076;52.354;4.970;2023-02-18T01:32:32;62.47;;;19.55;;
54171;SDS011;40076;52.354;4.970;2023-02-18T01:35:01;55.10;;;19.60;;
54171;SDS011;40076;52.354;4.970;2023-02-18T01:37:29;55.78;;;19.60;;
54171;SDS011;40076;52.354;4.970;2023-02-18T01:39:55;54.75;;;20.83;;
54171;SDS011;40076;52.354;4.970;2023-02-18T01:42:21;54.60;;;20.98;;
54171;SDS011;40076;52.354;4.970;2023-02-18T01:44:49;52.13;;;20.95;;
54171;SDS011;40076;52.354;4.970;2023-02-18T01:47:15;52.25;;;21.63;;
54171;SDS011;40076;52.354;4.970;2023-02-18T01:49:42;51.45;;;21.33;;
54171;SDS011;40076;52.354;4.970;2023-02-18T01:52:43;54.30;;;21.30;;
54171;SDS011;40076;52.354;4.970;2023-02-18T01:55:01;53.80;;;21.52;;
54171;SDS011;40076;52.354;4.970;2023-02-18T01:57:30;56.92;;;24.05;;
54171;SDS011;40076;52.354;4.970;2023-02-18T02:00:03;62.05;;;23.88;;
54171;SDS011;40076;52.354;4.970;2023-02-18T02:02:32;53.30;;;23.70;;
54171;SDS011;40076;52.354;4.970;2023-02-18T02:05:01;54.88;;;25.08;;
54171;SDS011;40076;52.354;4.970;2023-02-18T02:07:27;59.95;;;25.20;;
54171;SDS011;40076;52.354;4.970;2023-02-18T02:09:54;60.05;;;26.27;;
54171;SDS011;40076;52.354;4.970;2023-02-18T02:15:29;64.70;;;27.27;;
54171;SDS011;40076;52.354;4.970;2023-02-18T02:42:01;85.80;;;37.50;;
54171;SDS011;40076;52.354;4.970;2023-02-18T02:44:37;78.40;;;38.60;;
54171;SDS011;40076;52.354;4.970;2023-02-18T02:47:13;86.03;;;38.30;;
54171;SDS011;40076;52.354;4.970;2023-02-18T02:49:47;91.47;;;39.53;;
54171;SDS011;40076;52.354;4.970;2023-02-18T02:52:25;80.97;;;37.75;;
54171;SDS011;40076;52.354;4.970;2023-02-18T02:54:54;94.65;;;39.53;;
54171;SDS011;40076;52.354;4.970;2023-02-18T02:59:46;81.47;;;38.93;;
54171;SDS011;40076;52.354;4.970;2023-02-18T03:08:22;77.05;;;35.38;;
54171;SDS011;40076;52.354;4.970;2023-02-18T03:10:55;80.25;;;37.25;;
54171;SDS011;40076;52.354;4.970;2023-02-18T03:21:47;70.15;;;32.50;;
54171;SDS011;40076;52.354;4.970;2023-02-18T03:24:24;67.85;;;33.10;;
54171;SDS011;40076;52.354;4.970;2023-02-18T03:26:55;63.58;;;32.22;;
54171;SDS011;40076;52.354;4.970;2023-02-18T03:29:24;65.80;;;31.38;;
54171;SDS011;40076;52.354;4.970;2023-02-18T03:31:53;65.93;;;31.98;;
54171;SDS011;40076;52.354;4.970;2023-02-18T03:34:29;60.03;;;28.88;;
54171;SDS011;40076;52.354;4.970;2023-02-18T03:36:57;56.15;;;29.98;;
54171;SDS011;40076;52.354;4.970;2023-02-18T03:39:24;61.00;;;29.55;;
54171;SDS011;40076;52.354;4.970;2023-02-18T03:41:54;52.38;;;27.75;;
54171;SDS011;40076;52.354;4.970;2023-02-18T03:44:20;50.03;;;27.60;;
54171;SDS011;40076;52.354;4.970;2023-02-18T03:46:45;57.35;;;27.95;;
54171;SDS011;40076;52.354;4.970;2023-02-18T03:49:11;49.38;;;26.27;;
54171;SDS011;40076;52.354;4.970;2023-02-18T03:51:37;48.00;;;23.92;;
54171;SDS011;40076;52.354;4.970;2023-02-18T03:54:03;46.95;;;24.42;;
54171;SDS011;40076;52.354;4.970;2023-02-18T03:56:29;48.55;;;23.55;;
54171;SDS011;40076;52.354;4.970;2023-02-18T03:58:54;48.97;;;24.42;;
54171;SDS011;40076;52.354;4.970;2023-02-18T04:01:19;50.10;;;24.90;;
54171;SDS011;40076;52.354;4.970;2023-02-18T04:03:45;51.08;;;26.77;;
54171;SDS011;40076;52.354;4.970;2023-02-18T04:06:10;56.17;;;26.95;;
54171;SDS011;40076;52.354;4.970;2023-02-18T04:08:36;48.25;;;24.70;;
54171;SDS011;40076;52.354;4.970;2023-02-18T04:11:02;48.65;;;24.33;;
54171;SDS011;40076;52.354;4.970;2023-02-18T04:13:29;41.30;;;21.25;;
54171;SDS011;40076;52.354;4.970;2023-02-18T04:15:55;34.03;;;19.95;;
54171;SDS011;40076;52.354;4.970;2023-02-18T04:18:20;32.50;;;18.75;;
54171;SDS011;40076;52.354;4.970;2023-02-18T04:20:46;34.30;;;17.60;;
54171;SDS011;40076;52.354;4.970;2023-02-18T04:23:11;29.65;;;16.60;;
54171;SDS011;40076;52.354;4.970;2023-02-18T04:25:37;26.80;;;15.45;;
54171;SDS011;40076;52.354;4.970;2023-02-18T04:28:02;24.85;;;15.07;;
54171;SDS011;40076;52.354;4.970;2023-02-18T04:30:28;24.15;;;15.05;;
54171;SDS011;40076;52.354;4.970;2023-02-18T04:32:53;22.38;;;13.85;;
54171;SDS011;40076;52.354;4.970;2023-02-18T04:35:19;27.92;;;13.75;;
54171;SDS011;40076;52.354;4.970;2023-02-18T04:37:44;23.73;;;13.43;;
54171;SDS011;40076;52.354;4.970;2023-02-18T04:40:10;30.30;;;15.48;;
54171;SDS011;40076;52.354;4.970;2023-02-18T04:42:35;32.47;;;17.25;;
54171;SDS011;40076;52.354;4.970;2023-02-18T04:45:01;34.92;;;17.88;;
54171;SDS011;40076;52.354;4.970;2023-02-18T04:47:26;38.45;;;20.50;;
54171;SDS011;40076;52.354;4.970;2023-02-18T04:49:52;38.13;;;20.50;;
54171;SDS011;40076;52.354;4.970;2023-02-18T04:52:18;38.78;;;20.50;;
54171;SDS011;40076;52.354;4.970;2023-02-18T04:54:43;39.67;;;20.15;;
54171;SDS011;40076;52.354;4.970;2023-02-18T04:57:08;40.25;;;20.92;;
54171;SDS011;40076;52.354;4.970;2023-02-18T04:59:34;38.08;;;20.33;;
54171;SDS011;40076;52.354;4.970;2023-02-18T05:01:59;37.88;;;21.65;;
54171;SDS011;40076;52.354;4.970;2023-02-18T05:04:24;42.72;;;21.65;;
54171;SDS011;40076;52.354;4.970;2023-02-18T05:06:50;37.83;;;21.55;;
54171;SDS011;40076;52.354;4.970;2023-02-18T05:09:15;38.63;;;19.73;;
54171;SDS011;40076;52.354;4.970;2023-02-18T05:11:41;38.58;;;20.90;;
54171;SDS011;40076;52.354;4.970;2023-02-18T05:14:07;37.92;;;18.52;;
54171;SDS011;40076;52.354;4.970;2023-02-18T05:16:32;34.03;;;18.75;;
54171;SDS011;40076;52.354;4.970;2023-02-18T05:18:57;27.20;;;15.82;;
54171;SDS011;40076;52.354;4.970;2023-02-18T05:21:23;29.50;;;15.40;;
54171;SDS011;40076;52.354;4.970;2023-02-18T05:23:48;30.23;;;15.15;;
54171;SDS011;40076;52.354;4.970;2023-02-18T05:26:13;26.08;;;13.43;;
54171;SDS011;40076;52.354;4.970;2023-02-18T05:28:40;30.92;;;14.00;;
54171;SDS011;40076;52.354;4.970;2023-02-18T05:31:05;23.50;;;12.40;;
54171;SDS011;40076;52.354;4.970;2023-02-18T05:33:30;28.70;;;12.27;;
54171;SDS011;40076;52.354;4.970;2023-02-18T05:35:56;27.45;;;13.43;;
54171;SDS011;40076;52.354;4.970;2023-02-18T05:38:21;27.48;;;11.85;;
54171;SDS011;40076;52.354;4.970;2023-02-18T05:40:47;24.63;;;11.90;;
54171;SDS011;40076;52.354;4.970;2023-02-18T05:43:12;27.15;;;12.40;;
54171;SDS011;40076;52.354;4.970;2023-02-18T05:45:38;24.73;;;11.95;;
54171;SDS011;40076;52.354;4.970;2023-02-18T05:48:03;30.10;;;12.00;;
54171;SDS011;40076;52.354;4.970;2023-02-18T05:50:29;28.75;;;11.60;;
54171;SDS011;40076;52.354;4.970;2023-02-18T05:52:54;34.25;;;12.98;;
54171;SDS011;40076;52.354;4.970;2023-02-18T05:55:20;20.83;;;10.38;;
54171;SDS011;40076;52.354;4.970;2023-02-18T05:57:45;27.60;;;12.10;;
54171;SDS011;40076;52.354;4.970;2023-02-18T06:00:11;24.83;;;12.15;;
54171;SDS011;40076;52.354;4.970;2023-02-18T06:02:36;29.10;;;12.38;;
54171;SDS011;40076;52.354;4.970;2023-02-18T06:05:03;24.25;;;11.45;;
54171;SDS011;40076;52.354;4.970;2023-02-18T06:07:29;22.17;;;11.38;;
54171;SDS011;40076;52.354;4.970;2023-02-18T06:09:55;25.75;;;12.07;;
54171;SDS011;40076;52.354;4.970;2023-02-18T06:12:20;24.40;;;11.00;;
54171;SDS011;40076;52.354;4.970;2023-02-18T06:14:46;27.25;;;10.43;;
54171;SDS011;40076;52.354;4.970;2023-02-18T06:17:11;25.13;;;10.55;;
54171;SDS011;40076;52.354;4.970;2023-02-18T06:19:37;20.13;;;10.25;;
54171;SDS011;40076;52.354;4.970;2023-02-18T06:22:03;22.73;;;9.68;;
54171;SDS011;40076;52.354;4.970;2023-02-18T06:24:29;23.10;;;9.93;;
54171;SDS011;40076;52.354;4.970;2023-02-18T06:26:54;24.10;;;10.70;;
54171;SDS011;40076;52.354;4.970;2023-02-18T06:29:19;22.02;;;10.50;;
54171;SDS011;40076;52.354;4.970;2023-02-18T06:31:45;24.95;;;10.52;;
54171;SDS011;40076;52.354;4.970;2023-02-18T06:34:10;20.70;;;10.25;;
54171;SDS011;40076;52.354;4.970;2023-02-18T06:36:38;19.52;;;10.80;;
54171;SDS011;40076;52.354;4.970;2023-02-18T06:39:04;26.05;;;11.18;;
54171;SDS011;40076;52.354;4.970;2023-02-18T06:41:30;24.15;;;11.18;;
54171;SDS011;40076;52.354;4.970;2023-02-18T06:43:55;24.60;;;11.45;;
54171;SDS011;40076;52.354;4.970;2023-02-18T06:46:21;22.88;;;10.57;;
54171;SDS011;40076;52.354;4.970;2023-02-18T06:48:46;21.50;;;10.20;;
54171;SDS011;40076;52.354;4.970;2023-02-18T06:51:12;22.88;;;10.48;;
54171;SDS011;40076;52.354;4.970;2023-02-18T06:53:38;22.70;;;10.32;;
54171;SDS011;40076;52.354;4.970;2023-02-18T06:56:04;30.45;;;10.13;;
54171;SDS011;40076;52.354;4.970;2023-02-18T06:58:29;20.23;;;9.80;;
54171;SDS011;40076;52.354;4.970;2023-02-18T07:00:55;24.73;;;10.85;;
54171;SDS011;40076;52.354;4.970;2023-02-18T07:03:20;19.85;;;9.65;;
54171;SDS011;40076;52.354;4.970;2023-02-18T07:05:45;21.30;;;9.88;;
54171;SDS011;40076;52.354;4.970;2023-02-18T07:08:11;22.80;;;9.98;;
54171;SDS011;40076;52.354;4.970;2023-02-18T07:10:37;24.45;;;9.07;;
54171;SDS011;40076;52.354;4.970;2023-02-18T07:13:03;24.58;;;9.70;;
54171;SDS011;40076;52.354;4.970;2023-02-18T07:15:28;18.42;;;8.20;;
54171;SDS011;40076;52.354;4.970;2023-02-18T07:17:54;29.48;;;8.48;;
54171;SDS011;40076;52.354;4.970;2023-02-18T07:20:22;25.77;;;8.38;;
54171;SDS011;40076;52.354;4.970;2023-02-18T07:22:48;24.15;;;8.52;;
54171;SDS011;40076;52.354;4.970;2023-02-18T07:25:14;25.08;;;7.93;;
54171;SDS011;40076;52.354;4.970;2023-02-18T07:27:39;20.55;;;7.75;;
54171;SDS011;40076;52.354;4.970;2023-02-18T07:30:29;20.98;;;8.35;;
54171;SDS011;40076;52.354;4.970;2023-02-18T07:32:54;22.38;;;8.07;;
54171;SDS011;40076;52.354;4.970;2023-02-18T07:35:22;22.70;;;7.20;;
54171;SDS011;40076;52.354;4.970;2023-02-18T07:37:47;22.08;;;7.20;;
54171;SDS011;40076;52.354;4.970;2023-02-18T07:40:14;24.73;;;7.53;;
54171;SDS011;40076;52.354;4.970;2023-02-18T07:42:45;26.40;;;6.05;;
54171;SDS011;40076;52.354;4.970;2023-02-18T07:45:11;24.02;;;5.43;;
54171;SDS011;40076;52.354;4.970;2023-02-18T07:47:39;18.30;;;4.90;;
54171;SDS011;40076;52.354;4.970;2023-02-18T07:50:06;27.60;;;5.55;;
54171;SDS011;40076;52.354;4.970;2023-02-18T07:52:32;19.05;;;4.85;;
54171;SDS011;40076;52.354;4.970;2023-02-18T07:54:58;23.45;;;4.65;;
54171;SDS011;40076;52.354;4.970;2023-02-18T07:57:26;23.02;;;3.63;;
54171;SDS011;40076;52.354;4.970;2023-02-18T07:59:54;18.38;;;4.20;;
54171;SDS011;40076;52.354;4.970;2023-02-18T08:02:20;19.55;;;3.95;;
54171;SDS011;40076;52.354;4.970;2023-02-18T08:04:47;24.55;;;4.28;;
54171;SDS011;40076;52.354;4.970;2023-02-18T08:07:16;18.70;;;3.17;;
54171;SDS011;40076;52.354;4.970;2023-02-18T08:09:43;21.08;;;3.63;;
54171;SDS011;40076;52.354;4.970;2023-02-18T08:12:09;20.52;;;3.92;;
54171;SDS011;40076;52.354;4.970;2023-02-18T08:14:36;21.70;;;3.70;;
54171;SDS011;40076;52.354;4.970;2023-02-18T08:17:02;22.08;;;3.67;;
54171;SDS011;40076;52.354;4.970;2023-02-18T08:22:18;22.30;;;4.25;;
54171;SDS011;40076;52.354;4.970;2023-02-18T08:24:43;18.58;;;3.00;;
54171;SDS011;40076;52.354;4.970;2023-02-18T08:27:08;18.83;;;3.25;;
54171;SDS011;40076;52.354;4.970;2023-02-18T08:29:34;19.73;;;3.50;;
54171;SDS011;40076;52.354;4.970;2023-02-18T08:31:59;25.25;;;3.47;;
54171;SDS011;40076;52.354;4.970;2023-02-18T08:34:24;19.30;;;2.83;;
54171;SDS011;40076;52.354;4.970;2023-02-18T08:36:50;14.80;;;2.33;;
54171;SDS011;40076;52.354;4.970;2023-02-18T08:39:15;21.98;;;3.33;;
54171;SDS011;40076;52.354;4.970;2023-02-18T08:41:41;20.85;;;3.13;;
54171;SDS011;40076;52.354;4.970;2023-02-18T08:44:06;20.20;;;3.17;;
54171;SDS011;40076;52.354;4.970;2023-02-18T08:46:31;24.58;;;3.30;;
54171;SDS011;40076;52.354;4.970;2023-02-18T08:48:56;15.85;;;2.90;;
54171;SDS011;40076;52.354;4.970;2023-02-18T08:51:22;24.65;;;3.17;;
54171;SDS011;40076;52.354;4.970;2023-02-18T08:53:47;22.60;;;3.75;;
54171;SDS011;40076;52.354;4.970;2023-02-18T08:56:14;16.48;;;2.75;;
54171;SDS011;40076;52.354;4.970;2023-02-18T08:58:41;14.10;;;2.58;;
54171;SDS011;40076;52.354;4.970;2023-02-18T09:01:07;22.13;;;3.35;;
54171;SDS011;40076;52.354;4.970;2023-02-18T09:03:34;14.20;;;2.35;;
54171;SDS011;40076;52.354;4.970;2023-02-18T09:05:59;19.23;;;3.50;;
54171;SDS011;40076;52.354;4.970;2023-02-18T09:08:28;14.85;;;2.63;;
54171;SDS011;40076;52.354;4.970;2023-02-18T09:10:57;22.33;;;3.10;;
54171;SDS011;40076;52.354;4.970;2023-02-18T09:13:25;21.17;;;3.08;;
54171;SDS011;40076;52.354;4.970;2023-02-18T09:15:57;24.17;;;3.28;;
54171;SDS011;40076;52.354;4.970;2023-02-18T09:18:30;17.17;;;3.60;;
54171;SDS011;40076;52.354;4.970;2023-02-18T09:20:57;21.42;;;3.72;;
54171;SDS011;40076;52.354;4.970;2023-02-18T09:23:24;21.17;;;3.05;;
54171;SDS011;40076;52.354;4.970;2023-02-18T09:25:51;21.10;;;3.05;;
54171;SDS011;40076;52.354;4.970;2023-02-18T09:28:16;17.65;;;3.05;;
54171;SDS011;40076;52.354;4.970;2023-02-18T09:30:41;19.65;;;3.85;;
54171;SDS011;40076;52.354;4.970;2023-02-18T09:33:07;16.35;;;2.78;;
54171;SDS011;40076;52.354;4.970;2023-02-18T09:35:32;22.27;;;3.10;;
54171;SDS011;40076;52.354;4.970;2023-02-18T09:37:57;29.80;;;4.63;;
54171;SDS011;40076;52.354;4.970;2023-02-18T09:40:25;23.00;;;3.47;;
54171;SDS011;40076;52.354;4.970;2023-02-18T09:42:53;24.38;;;3.40;;
54171;SDS011;40076;52.354;4.970;2023-02-18T09:45:22;21.05;;;4.50;;
54171;SDS011;40076;52.354;4.970;2023-02-18T09:47:48;19.17;;;3.70;;
54171;SDS011;40076;52.354;4.970;2023-02-18T09:50:22;20.33;;;2.80;;
54171;SDS011;40076;52.354;4.970;2023-02-18T09:52:52;14.00;;;3.00;;
54171;SDS011;40076;52.354;4.970;2023-02-18T09:57:48;16.38;;;2.72;;
54171;SDS011;40076;52.354;4.970;2023-02-18T10:00:38;18.08;;;3.30;;
54171;SDS011;40076;52.354;4.970;2023-02-18T10:03:07;20.23;;;3.30;;
54171;SDS011;40076;52.354;4.970;2023-02-18T10:05:39;16.52;;;3.58;;
54171;SDS011;40076;52.354;4.970;2023-02-18T10:08:17;18.55;;;3.35;;
54171;SDS011;40076;52.354;4.970;2023-02-18T10:10:46;21.98;;;4.00;;
54171;SDS011;40076;52.354;4.970;2023-02-18T10:13:13;23.00;;;3.67;;
54171;SDS011;40076;52.354;4.970;2023-02-18T10:15:41;22.45;;;3.55;;
54171;SDS011;40076;52.354;4.970;2023-02-18T10:18:21;20.17;;;3.95;;
54171;SDS011;40076;52.354;4.970;2023-02-18T10:21:13;20.27;;;3.65;;
54171;SDS011;40076;52.354;4.970;2023-02-18T10:23:46;20.02;;;3.33;;
54171;SDS011;40076;52.354;4.970;2023-02-18T10:26:20;21.60;;;3.45;;
54171;SDS011;40076;52.354;4.970;2023-02-18T10:28:45;20.55;;;3.35;;
54171;SDS011;40076;52.354;4.970;2023-02-18T10:31:14;20.98;;;3.55;;
54171;SDS011;40076;52.354;4.970;2023-02-18T10:39:05;19.65;;;3.45;;
54171;SDS011;40076;52.354;4.970;2023-02-18T10:49:37;17.30;;;2.78;;
54171;SDS011;40076;52.354;4.970;2023-02-18T10:52:04;21.95;;;3.47;;
54171;SDS011;40076;52.354;4.970;2023-02-18T10:54:48;17.48;;;2.75;;
54171;SDS011;40076;52.354;4.970;2023-02-18T10:57:17;19.85;;;2.90;;
54171;SDS011;40076;52.354;4.970;2023-02-18T10:59:54;21.95;;;3.22;;
54171;SDS011;40076;52.354;4.970;2023-02-18T11:02:19;19.38;;;3.35;;
54171;SDS011;40076;52.354;4.970;2023-02-18T11:04:45;20.20;;;3.80;;
54171;SDS011;40076;52.354;4.970;2023-02-18T11:07:30;18.60;;;2.97;;
54171;SDS011;40076;52.354;4.970;2023-02-18T11:10:09;20.35;;;2.60;;
54171;SDS011;40076;52.354;4.970;2023-02-18T11:12:43;17.08;;;2.90;;
54171;SDS011;40076;52.354;4.970;2023-02-18T11:15:16;18.65;;;2.58;;
54171;SDS011;40076;52.354;4.970;2023-02-18T11:17:45;20.17;;;3.08;;
54171;SDS011;40076;52.354;4.970;2023-02-18T11:22:46;18.70;;;2.88;;
54171;SDS011;40076;52.354;4.970;2023-02-18T11:25:20;15.73;;;2.30;;
54171;SDS011;40076;52.354;4.970;2023-02-18T11:27:52;24.15;;;3.22;;
54171;SDS011;40076;52.354;4.970;2023-02-18T11:33:15;17.15;;;2.45;;
54171;SDS011;40076;52.354;4.970;2023-02-18T11:35:48;17.10;;;3.10;;
54171;SDS011;40076;52.354;4.970;2023-02-18T11:41:16;17.80;;;3.10;;
54171;SDS011;40076;52.354;4.970;2023-02-18T11:43:51;22.85;;;3.42;;
54171;SDS011;40076;52.354;4.970;2023-02-18T11:46:22;15.10;;;2.83;;
54171;SDS011;40076;52.354;4.970;2023-02-18T11:48:49;13.93;;;2.60;;
54171;SDS011;40076;52.354;4.970;2023-02-18T11:51:32;15.73;;;2.78;;
54171;SDS011;40076;52.354;4.970;2023-02-18T11:54:17;15.50;;;2.60;;
54171;SDS011;40076;52.354;4.970;2023-02-18T11:56:54;12.30;;;2.53;;
54171;SDS011;40076;52.354;4.970;2023-02-18T11:59:34;13.93;;;2.90;;
54171;SDS011;40076;52.354;4.970;2023-02-18T12:04:40;15.98;;;3.22;;
54171;SDS011;40076;52.354;4.970;2023-02-18T12:07:11;15.77;;;2.33;;
54171;SDS011;40076;52.354;4.970;2023-02-18T12:09:56;17.80;;;2.58;;
54171;SDS011;40076;52.354;4.970;2023-02-18T12:12:29;19.33;;;2.58;;
54171;SDS011;40076;52.354;4.970;2023-02-18T12:14:58;17.88;;;3.03;;
54171;SDS011;40076;52.354;4.970;2023-02-18T12:26:00;14.00;;;2.60;;
54171;SDS011;40076;52.354;4.970;2023-02-18T12:31:46;17.58;;;3.55;;
54171;SDS011;40076;52.354;4.970;2023-02-18T12:42:57;19.23;;;3.05;;
54171;SDS011;40076;52.354;4.970;2023-02-18T12:51:01;15.60;;;2.97;;
54171;SDS011;40076;52.354;4.970;2023-02-18T12:56:28;18.80;;;3.55;;
54171;SDS011;40076;52.354;4.970;2023-02-18T13:07:36;14.63;;;2.65;;
54171;SDS011;40076;52.354;4.970;2023-02-18T13:12:56;14.43;;;3.38;;
54171;SDS011;40076;52.354;4.970;2023-02-18T13:18:17;17.20;;;3.13;;
54171;SDS011;40076;52.354;4.970;2023-02-18T13:20:48;13.20;;;2.80;;
54171;SDS011;40076;52.354;4.970;2023-02-18T13:23:41;17.17;;;2.70;;
54171;SDS011;40076;52.354;4.970;2023-02-18T13:26:14;22.75;;;3.25;;
54171;SDS011;40076;52.354;4.970;2023-02-18T13:31:39;20.33;;;3.58;;
54171;SDS011;40076;52.354;4.970;2023-02-18T13:34:21;20.60;;;3.85;;
54171;SDS011;40076;52.354;4.970;2023-02-18T13:37:10;23.58;;;3.97;;
54171;SDS011;40076;52.354;4.970;2023-02-18T13:39:46;15.35;;;3.67;;
54171;SDS011;40076;52.354;4.970;2023-02-18T13:42:25;16.95;;;2.85;;
54171;SDS011;40076;52.354;4.970;2023-02-18T13:45:05;17.90;;;2.92;;
54171;SDS011;40076;52.354;4.970;2023-02-18T13:47:51;18.30;;;3.33;;
54171;SDS011;40076;52.354;4.970;2023-02-18T13:52:46;20.63;;;4.43;;
54171;SDS011;40076;52.354;4.970;2023-02-18T13:55:16;12.90;;;2.72;;
54171;SDS011;40076;52.354;4.970;2023-02-18T13:57:45;14.85;;;2.45;;
54171;SDS011;40076;52.354;4.970;2023-02-18T14:00:23;18.33;;;2.95;;
54171;SDS011;40076;52.354;4.970;2023-02-18T14:03:00;21.10;;;3.67;;
54171;SDS011;40076;52.354;4.970;2023-02-18T14:05:42;14.35;;;2.63;;
54171;SDS011;40076;52.354;4.970;2023-02-18T14:08:15;20.83;;;4.50;;
54171;SDS011;40076;52.354;4.970;2023-02-18T14:16:25;11.95;;;2.83;;
54171;SDS011;40076;52.354;4.970;2023-02-18T14:18:53;17.42;;;3.00;;
54171;SDS011;40076;52.354;4.970;2023-02-18T14:21:22;21.35;;;2.95;;
54171;SDS011;40076;52.354;4.970;2023-02-18T14:24:01;20.63;;;2.67;;
54171;SDS011;40076;52.354;4.970;2023-02-18T14:28:58;16.13;;;3.20;;
54171;SDS011;40076;52.354;4.970;2023-02-18T14:31:45;17.52;;;2.70;;
54171;SDS011;40076;52.354;4.970;2023-02-18T14:50:30;18.58;;;3.22;;
54171;SDS011;40076;52.354;4.970;2023-02-18T14:52:58;13.85;;;3.35;;
54171;SDS011;40076;52.354;4.970;2023-02-18T14:55:31;16.67;;;3.42;;
54171;SDS011;40076;52.354;4.970;2023-02-18T14:58:03;21.30;;;4.30;;
54171;SDS011;40076;52.354;4.970;2023-02-18T15:00:33;10.43;;;2.60;;
54171;SDS011;40076;52.354;4.970;2023-02-18T15:03:10;15.35;;;2.85;;
54171;SDS011;40076;52.354;4.970;2023-02-18T15:05:38;15.23;;;3.08;;
54171;SDS011;40076;52.354;4.970;2023-02-18T15:08:13;16.75;;;3.80;;
54171;SDS011;40076;52.354;4.970;2023-02-18T15:10:55;14.02;;;2.60;;
54171;SDS011;40076;52.354;4.970;2023-02-18T15:13:26;21.23;;;3.33;;
54171;SDS011;40076;52.354;4.970;2023-02-18T15:15:55;17.95;;;3.20;;
54171;SDS011;40076;52.354;4.970;2023-02-18T15:18:27;19.52;;;3.47;;
54171;SDS011;40076;52.354;4.970;2023-02-18T15:20:59;15.73;;;3.22;;
54171;SDS011;40076;52.354;4.970;2023-02-18T15:23:28;13.93;;;2.60;;
54171;SDS011;40076;52.354;4.970;2023-02-18T15:25:55;15.20;;;3.47;;
54171;SDS011;40076;52.354;4.970;2023-02-18T15:28:23;19.70;;;3.58;;
54171;SDS011;40076;52.354;4.970;2023-02-18T15:30:57;18.08;;;2.78;;
54171;SDS011;40076;52.354;4.970;2023-02-18T15:33:24;14.50;;;3.05;;
54171;SDS011;40076;52.354;4.970;2023-02-18T15:35:49;16.63;;;2.70;;
54171;SDS011;40076;52.354;4.970;2023-02-18T15:38:16;18.40;;;3.22;;
54171;SDS011;40076;52.354;4.970;2023-02-18T15:40:44;20.63;;;3.53;;
54171;SDS011;40076;52.354;4.970;2023-02-18T15:43:15;17.25;;;4.15;;
54171;SDS011;40076;52.354;4.970;2023-02-18T15:45:51;15.57;;;3.25;;
54171;SDS011;40076;52.354;4.970;2023-02-18T15:48:21;19.20;;;3.08;;
54171;SDS011;40076;52.354;4.970;2023-02-18T15:50:49;14.73;;;2.72;;
54171;SDS011;40076;52.354;4.970;2023-02-18T15:53:16;17.30;;;2.90;;
54171;SDS011;40076;52.354;4.970;2023-02-18T15:55:47;19.52;;;3.50;;
54171;SDS011;40076;52.354;4.970;2023-02-18T15:58:20;21.20;;;3.65;;
54171;SDS011;40076;52.354;4.970;2023-02-18T16:00:51;21.55;;;3.22;;
54171;SDS011;40076;52.354;4.970;2023-02-18T16:03:26;19.05;;;3.40;;
54171;SDS011;40076;52.354;4.970;2023-02-18T16:06:07;23.17;;;3.70;;
54171;SDS011;40076;52.354;4.970;2023-02-18T16:08:33;20.17;;;3.47;;
54171;SDS011;40076;52.354;4.970;2023-02-18T16:10:59;18.23;;;3.40;;
54171;SDS011;40076;52.354;4.970;2023-02-18T16:13:28;14.10;;;2.97;;
54171;SDS011;40076;52.354;4.970;2023-02-18T16:15:55;23.88;;;3.85;;
54171;SDS011;40076;52.354;4.970;2023-02-18T16:21:03;19.30;;;3.10;;
54171;SDS011;40076;52.354;4.970;2023-02-18T16:23:43;16.58;;;3.47;;
54171;SDS011;40076;52.354;4.970;2023-02-18T16:26:10;17.27;;;3.00;;
54171;SDS011;40076;52.354;4.970;2023-02-18T16:28:44;19.55;;;4.07;;
54171;SDS011;40076;52.354;4.970;2023-02-18T16:31:10;14.65;;;3.35;;
54171;SDS011;40076;52.354;4.970;2023-02-18T16:33:35;18.75;;;3.13;;
54171;SDS011;40076;52.354;4.970;2023-02-18T16:36:00;15.50;;;3.13;;
54171;SDS011;40076;52.354;4.970;2023-02-18T16:38:26;22.42;;;3.28;;
54171;SDS011;40076;52.354;4.970;2023-02-18T16:40:57;17.42;;;2.67;;
54171;SDS011;40076;52.354;4.970;2023-02-18T16:43:24;12.63;;;2.83;;
54171;SDS011;40076;52.354;4.970;2023-02-18T16:45:52;16.42;;;3.63;;
54171;SDS011;40076;52.354;4.970;2023-02-18T16:48:23;15.35;;;3.03;;
54171;SDS011;40076;52.354;4.970;2023-02-18T16:51:05;27.70;;;4.03;;
54171;SDS011;40076;52.354;4.970;2023-02-18T16:53:35;16.75;;;3.55;;
54171;SDS011;40076;52.354;4.970;2023-02-18T16:56:00;18.25;;;3.30;;
54171;SDS011;40076;52.354;4.970;2023-02-18T16:58:26;15.40;;;3.90;;
54171;SDS011;40076;52.354;4.970;2023-02-18T17:00:52;19.80;;;3.22;;
54171;SDS011;40076;52.354;4.970;2023-02-18T17:03:17;19.10;;;3.15;;
54171;SDS011;40076;52.354;4.970;2023-02-18T17:05:43;16.38;;;3.30;;